sensor_id;sensor_type;location;lat;lon;timestamp;P1;durP1;ratioP1;P2;durP2;ratioP2
44452;SDS011;30155;52.164;21.236;2023-07-31T01:33:41;3.20;;;2.90;;
44452;SDS011;30155;52.164;21.236;2023-07-31T01:54:06;3.00;;;2.70;;
44452;SDS011;30155;52.164;21.236;2023-07-31T02:07:04;4.20;;;3.10;;
44452;SDS011;30155;52.164;21.236;2023-07-31T02:12:06;4.20;;;2.80;;
44452;SDS011;30155;52.164;21.236;2023-07-31T03:57:22;3.20;;;3.00;;
44452;SDS011;30155;52.164;21.236;2023-07-31T05:03:04;4.90;;;3.00;;
44452;SDS011;30155;52.164;21.236;2023-07-31T05:09:08;4.30;;;3.30;;
44452;SDS011;30155;52.164;21.236;2023-07-31T05:34:34;4.40;;;2.50;;
44452;SDS011;30155;52.164;21.236;2023-07-31T06:04:37;5.70;;;3.30;;
44452;SDS011;30155;52.164;21.236;2023-07-31T06:24:20;5.10;;;2.50;;
44452;SDS011;30155;52.164;21.236;2023-07-31T06:29:57;3.20;;;2.70;;
44452;SDS011;30155;52.164;21.236;2023-07-31T06:42:35;3.80;;;2.70;;
44452;SDS011;30155;52.164;21.236;2023-07-31T07:06:26;4.00;;;3.50;;
44452;SDS011;30155;52.164;21.236;2023-07-31T07:23:23;4.40;;;3.00;;
44452;SDS011;30155;52.164;21.236;2023-07-31T07:28:54;3.10;;;2.70;;
44452;SDS011;30155;52.164;21.236;2023-07-31T07:34:14;4.10;;;3.00;;
44452;SDS011;30155;52.164;21.236;2023-07-31T07:39:45;3.70;;;2.60;;
44452;SDS011;30155;52.164;21.236;2023-07-31T07:45:07;5.30;;;3.00;;
44452;SDS011;30155;52.164;21.236;2023-07-31T07:50:31;3.70;;;3.00;;
44452;SDS011;30155;52.164;21.236;2023-07-31T07:55:33;3.90;;;3.10;;
44452;SDS011;30155;52.164;21.236;2023-07-31T08:50:56;4.20;;;2.60;;
44452;SDS011;30155;52.164;21.236;2023-07-31T08:55:49;5.30;;;2.30;;
44452;SDS011;30155;52.164;21.236;2023-07-31T09:00:50;4.00;;;2.20;;
44452;SDS011;30155;52.164;21.236;2023-07-31T09:05:46;2.80;;;2.10;;
44452;SDS011;30155;52.164;21.236;2023-07-31T09:11:01;4.40;;;2.40;;
44452;SDS011;30155;52.164;21.236;2023-07-31T09:21:49;5.00;;;2.30;;
44452;SDS011;30155;52.164;21.236;2023-07-31T09:26:42;3.00;;;2.20;;
44452;SDS011;30155;52.164;21.236;2023-07-31T09:31:59;2.80;;;2.30;;
44452;SDS011;30155;52.164;21.236;2023-07-31T09:44:47;5.90;;;2.60;;
44452;SDS011;30155;52.164;21.236;2023-07-31T09:55:12;4.90;;;2.80;;
44452;SDS011;30155;52.164;21.236;2023-07-31T10:00:05;4.80;;;2.40;;
44452;SDS011;30155;52.164;21.236;2023-07-31T10:05:07;3.60;;;2.10;;
44452;SDS011;30155;52.164;21.236;2023-07-31T10:15:58;2.20;;;1.60;;
44452;SDS011;30155;52.164;21.236;2023-07-31T10:20:59;3.30;;;2.00;;
44452;SDS011;30155;52.164;21.236;2023-07-31T10:25:56;2.00;;;1.80;;
44452;SDS011;30155;52.164;21.236;2023-07-31T10:37:29;2.50;;;2.10;;
44452;SDS011;30155;52.164;21.236;2023-07-31T10:42:58;3.60;;;2.00;;
44452;SDS011;30155;52.164;21.236;2023-07-31T10:49:00;2.60;;;2.20;;
44452;SDS011;30155;52.164;21.236;2023-07-31T10:54:05;2.90;;;2.00;;
44452;SDS011;30155;52.164;21.236;2023-07-31T10:59:03;2.40;;;2.10;;
44452;SDS011;30155;52.164;21.236;2023-07-31T11:04:11;3.80;;;2.00;;
44452;SDS011;30155;52.164;21.236;2023-07-31T11:09:05;2.80;;;2.30;;
44452;SDS011;30155;52.164;21.236;2023-07-31T11:14:12;6.60;;;2.30;;
44452;SDS011;30155;52.164;21.236;2023-07-31T11:19:24;2.60;;;1.60;;
44452;SDS011;30155;52.164;21.236;2023-07-31T11:24:49;3.00;;;2.10;;
44452;SDS011;30155;52.164;21.236;2023-07-31T11:36:04;4.10;;;1.80;;
44452;SDS011;30155;52.164;21.236;2023-07-31T11:47:13;3.70;;;2.00;;
44452;SDS011;30155;52.164;21.236;2023-07-31T11:52:07;1.90;;;1.50;;
44452;SDS011;30155;52.164;21.236;2023-07-31T12:27:13;5.00;;;1.90;;
44452;SDS011;30155;52.164;21.236;2023-07-31T12:32:20;3.50;;;2.00;;
44452;SDS011;30155;52.164;21.236;2023-07-31T12:37:19;2.10;;;1.60;;
44452;SDS011;30155;52.164;21.236;2023-07-31T12:42:13;2.00;;;1.20;;
44452;SDS011;30155;52.164;21.236;2023-07-31T12:47:09;5.30;;;1.80;;
44452;SDS011;30155;52.164;21.236;2023-07-31T12:52:03;1.90;;;1.60;;
44452;SDS011;30155;52.164;21.236;2023-07-31T12:56:56;2.60;;;1.90;;
44452;SDS011;30155;52.164;21.236;2023-07-31T13:01:49;2.90;;;1.50;;
44452;SDS011;30155;52.164;21.236;2023-07-31T13:06:42;5.70;;;1.90;;
44452;SDS011;30155;52.164;21.236;2023-07-31T13:11:35;3.00;;;1.70;;
44452;SDS011;30155;52.164;21.236;2023-07-31T13:16:29;2.80;;;1.80;;
44452;SDS011;30155;52.164;21.236;2023-07-31T13:22:09;5.80;;;2.40;;
44452;SDS011;30155;52.164;21.236;2023-07-31T13:39:11;2.20;;;1.50;;
44452;SDS011;30155;52.164;21.236;2023-07-31T13:44:06;2.10;;;1.60;;
44452;SDS011;30155;52.164;21.236;2023-07-31T13:49:06;1.60;;;1.20;;
44452;SDS011;30155;52.164;21.236;2023-07-31T13:54:00;4.00;;;2.00;;
44452;SDS011;30155;52.164;21.236;2023-07-31T13:59:22;5.30;;;2.00;;
44452;SDS011;30155;52.164;21.236;2023-07-31T14:04:42;3.30;;;1.90;;
44452;SDS011;30155;52.164;21.236;2023-07-31T14:21:41;6.30;;;2.00;;
44452;SDS011;30155;52.164;21.236;2023-07-31T14:33:50;1.80;;;1.30;;
44452;SDS011;30155;52.164;21.236;2023-07-31T14:53:48;3.30;;;1.60;;
44452;SDS011;30155;52.164;21.236;2023-07-31T14:58:46;5.20;;;1.90;;
44452;SDS011;30155;52.164;21.236;2023-07-31T15:03:48;3.20;;;1.80;;
44452;SDS011;30155;52.164;21.236;2023-07-31T15:09:03;3.10;;;1.30;;
44452;SDS011;30155;52.164;21.236;2023-07-31T15:22:09;5.90;;;1.70;;
44452;SDS011;30155;52.164;21.236;2023-07-31T15:28:23;3.70;;;1.60;;
44452;SDS011;30155;52.164;21.236;2023-07-31T15:48:52;1.90;;;1.40;;
44452;SDS011;30155;52.164;21.236;2023-07-31T17:20:19;2.00;;;1.80;;
44452;SDS011;30155;52.164;21.236;2023-07-31T17:45:35;3.10;;;2.20;;
44452;SDS011;30155;52.164;21.236;2023-07-31T17:51:59;7.00;;;3.90;;
44452;SDS011;30155;52.164;21.236;2023-07-31T18:25:00;5.80;;;2.50;;
44452;SDS011;30155;52.164;21.236;2023-07-31T18:30:00;4.30;;;2.20;;
44452;SDS011;30155;52.164;21.236;2023-07-31T18:34:57;3.60;;;2.10;;
44452;SDS011;30155;52.164;21.236;2023-07-31T18:41:11;2.00;;;1.70;;
44452;SDS011;30155;52.164;21.236;2023-07-31T18:46:50;4.80;;;2.40;;
44452;SDS011;30155;52.164;21.236;2023-07-31T18:52:19;4.10;;;1.80;;
44452;SDS011;30155;52.164;21.236;2023-07-31T18:57:38;4.70;;;1.90;;
44452;SDS011;30155;52.164;21.236;2023-07-31T19:03:20;3.10;;;2.00;;
44452;SDS011;30155;52.164;21.236;2023-07-31T19:14:46;2.80;;;2.30;;
44452;SDS011;30155;52.164;21.236;2023-07-31T19:19:49;3.20;;;2.10;;
44452;SDS011;30155;52.164;21.236;2023-07-31T19:25:16;2.60;;;2.10;;
44452;SDS011;30155;52.164;21.236;2023-07-31T19:30:26;2.90;;;2.20;;
44452;SDS011;30155;52.164;21.236;2023-07-31T19:35:56;2.20;;;2.00;;
44452;SDS011;30155;52.164;21.236;2023-07-31T19:41:04;3.10;;;2.30;;
44452;SDS011;30155;52.164;21.236;2023-07-31T19:46:16;4.70;;;2.70;;
44452;SDS011;30155;52.164;21.236;2023-07-31T19:51:20;6.30;;;2.50;;
44452;SDS011;30155;52.164;21.236;2023-07-31T19:56:46;4.20;;;2.30;;
44452;SDS011;30155;52.164;21.236;2023-07-31T20:02:03;4.00;;;2.60;;
44452;SDS011;30155;52.164;21.236;2023-07-31T20:07:17;3.40;;;2.50;;
44452;SDS011;30155;52.164;21.236;2023-07-31T20:12:19;5.30;;;3.30;;
44452;SDS011;30155;52.164;21.236;2023-07-31T20:17:23;5.80;;;2.60;;
44452;SDS011;30155;52.164;21.236;2023-07-31T20:27:48;5.40;;;3.00;;
44452;SDS011;30155;52.164;21.236;2023-07-31T20:33:14;3.20;;;2.50;;
44452;SDS011;30155;52.164;21.236;2023-07-31T20:38:27;6.40;;;3.40;;
44452;SDS011;30155;52.164;21.236;2023-07-31T20:43:21;5.00;;;3.10;;
44452;SDS011;30155;52.164;21.236;2023-07-31T20:48:17;2.80;;;2.60;;
44452;SDS011;30155;52.164;21.236;2023-07-31T20:53:16;4.30;;;3.20;;
44452;SDS011;30155;52.164;21.236;2023-07-31T20:58:12;4.70;;;3.20;;
44452;SDS011;30155;52.164;21.236;2023-07-31T21:03:06;4.30;;;3.10;;
44452;SDS011;30155;52.164;21.236;2023-07-31T21:08:05;6.40;;;3.50;;
44452;SDS011;30155;52.164;21.236;2023-07-31T21:13:10;4.40;;;3.00;;
44452;SDS011;30155;52.164;21.236;2023-07-31T21:18:09;4.10;;;3.20;;
44452;SDS011;30155;52.164;21.236;2023-07-31T21:23:09;4.20;;;3.20;;
44452;SDS011;30155;52.164;21.236;2023-07-31T21:28:06;3.60;;;3.10;;
44452;SDS011;30155;52.164;21.236;2023-07-31T21:33:06;5.10;;;3.50;;
44452;SDS011;30155;52.164;21.236;2023-07-31T21:37:59;4.50;;;3.10;;
44452;SDS011;30155;52.164;21.236;2023-07-31T21:42:52;3.50;;;3.20;;
44452;SDS011;30155;52.164;21.236;2023-07-31T21:47:52;4.20;;;3.10;;
44452;SDS011;30155;52.164;21.236;2023-07-31T21:53:02;5.70;;;3.90;;
44452;SDS011;30155;52.164;21.236;2023-07-31T21:57:56;5.10;;;3.80;;
44452;SDS011;30155;52.164;21.236;2023-07-31T22:02:52;5.10;;;4.00;;
44452;SDS011;30155;52.164;21.236;2023-07-31T22:21:05;6.40;;;4.70;;
44452;SDS011;30155;52.164;21.236;2023-07-31T22:33:09;4.20;;;3.80;;
44452;SDS011;30155;52.164;21.236;2023-07-31T22:38:45;9.40;;;4.50;;
44452;SDS011;30155;52.164;21.236;2023-07-31T22:44:09;5.10;;;3.80;;
44452;SDS011;30155;52.164;21.236;2023-07-31T22:56:26;5.50;;;3.90;;
44452;SDS011;30155;52.164;21.236;2023-07-31T23:02:39;6.50;;;4.30;;
44452;SDS011;30155;52.164;21.236;2023-07-31T23:08:34;6.30;;;4.60;;
44452;SDS011;30155;52.164;21.236;2023-07-31T23:20:47;5.70;;;4.30;;
44452;SDS011;30155;52.164;21.236;2023-07-31T23:27:16;8.30;;;4.10;;
